Time;durP1;ratioP1;P1;durP2;ratioP2;P2;SDS_P1;SDS_P2;PMS_P1;PMS_P2;Temp;Humidity;BMP_temperature;BMP_pressure;BME280_temperature;BME280_humidity;BME280_pressure;Samples;Min_cycle;Max_cycle;Signal;HPM_P1;HPM_P2
2023/12/30 00:02:07;;;;;;;12.00;4.38;;;6.80;67.10;;;;;;5059086;28;19924;-71
2023/12/30 00:04:33;;;;;;;9.30;5.13;;;6.80;66.70;;;;;;5065160;28;20033;-72
2023/12/30 00:06:59;;;;;;;;;;;6.80;67.30;;;;;;5069062;28;20040;-72
2023/12/30 00:09:25;;;;;;;4.22;2.88;;;6.90;67.60;;;;;;5057441;28;19956;-72
2023/12/30 00:11:53;;;;;;;4.75;3.03;;;6.90;67.70;;;;;;5066038;28;20041;-72
2023/12/30 00:14:19;;;;;;;6.43;2.63;;;6.90;68.10;;;;;;5069549;28;20746;-72
2023/12/30 00:16:45;;;;;;;3.45;2.63;;;6.90;68.10;;;;;;5066452;28;20115;-72
2023/12/30 00:19:12;;;;;;;1.60;1.05;;;7.00;68.60;;;;;;5054369;28;20162;-72
2023/12/30 00:21:38;;;;;;;2.30;1.50;;;7.00;68.60;;;;;;5070138;28;20430;-72
2023/12/30 00:24:05;;;;;;;2.60;1.63;;;7.00;68.80;;;;;;5060751;28;20074;-72
2023/12/30 00:26:31;;;;;;;2.33;1.42;;;7.10;68.70;;;;;;5069913;28;20037;-73
2023/12/30 00:28:57;;;;;;;5.38;2.58;;;7.20;68.60;;;;;;5050363;28;20041;-72
2023/12/30 00:31:28;;;;;;;3.30;1.02;;;7.20;68.50;;;;;;5063515;28;20465;-72
2023/12/30 00:34:01;;;;;;;8.65;4.15;;;7.20;68.20;;;;;;5069122;28;20033;-72
2023/12/30 00:36:28;;;;;;;15.45;6.90;;;7.30;67.80;;;;;;5067827;28;20037;-72
2023/12/30 00:38:55;;;;;;;7.63;3.45;;;7.30;68.50;;;;;;5069188;28;20071;-72
2023/12/30 00:41:39;;;;;;;6.60;2.80;;;7.40;68.10;;;;;;5070228;28;20032;-72
2023/12/30 00:44:06;;;;;;;6.22;3.20;;;7.40;68.80;;;;;;5063106;28;20036;-72
2023/12/30 00:46:32;;;;;;;5.28;2.63;;;7.40;68.60;;;;;;5064610;28;20096;-73
2023/12/30 00:48:58;;;;;;;5.97;2.10;;;7.50;68.90;;;;;;5070635;28;20048;-72
2023/12/30 00:51:25;;;;;;;5.63;4.30;;;7.50;68.70;;;;;;5071223;28;20064;-72
2023/12/30 00:53:51;;;;;;;;;;;7.50;68.30;;;;;;5054371;28;20505;-72
2023/12/30 00:56:17;;;;;;;5.47;2.95;;;7.50;68.80;;;;;;5068480;28;20003;-72
2023/12/30 00:58:43;;;;;;;10.07;5.50;;;7.50;68.60;;;;;;5053668;28;20037;-72
2023/12/30 01:01:09;;;;;;;9.45;4.05;;;7.50;68.50;;;;;;5071127;28;20037;-72
2023/12/30 01:03:35;;;;;;;7.25;3.25;;;7.60;68.50;;;;;;5070747;28;20036;-72
2023/12/30 01:06:01;;;;;;;3.67;2.28;;;7.60;68.80;;;;;;5067707;28;20116;-73
2023/12/30 01:08:27;;;;;;;6.03;2.75;;;7.60;68.80;;;;;;5071799;28;20064;-72
2023/12/30 01:10:53;;;;;;;7.13;3.95;;;7.60;68.80;;;;;;5049903;28;20040;-73
2023/12/30 01:13:19;;;;;;;8.70;4.03;;;7.60;68.70;;;;;;5055761;28;20049;-73
2023/12/30 01:15:45;;;;;;;6.15;4.05;;;7.60;68.70;;;;;;5052258;28;20047;-72
2023/12/30 01:18:11;;;;;;;4.82;2.97;;;7.60;68.70;;;;;;5055428;28;20049;-73
2023/12/30 01:20:37;;;;;;;4.63;2.40;;;7.70;68.60;;;;;;5059347;28;20029;-72
2023/12/30 01:23:03;;;;;;;6.30;2.88;;;7.70;68.60;;;;;;5055515;28;20029;-72
2023/12/30 01:25:29;;;;;;;3.47;2.50;;;7.70;68.50;;;;;;5074491;28;20116;-72
2023/12/30 01:27:56;;;;;;;3.90;1.52;;;7.70;68.50;;;;;;5075310;28;20032;-73
2023/12/30 01:30:22;;;;;;;2.38;1.50;;;7.70;68.60;;;;;;5073188;28;20464;-73
2023/12/30 01:32:48;;;;;;;2.85;2.40;;;7.70;68.70;;;;;;5072242;28;20482;-73
2023/12/30 01:35:15;;;;;;;3.75;1.77;;;7.70;68.70;;;;;;5054813;28;20094;-72
2023/12/30 01:37:41;;;;;;;5.47;1.88;;;7.70;68.70;;;;;;5053961;28;20029;-72
2023/12/30 01:40:08;;;;;;;2.97;1.48;;;7.70;68.10;;;;;;5054881;28;20061;-73
2023/12/30 01:42:35;;;;;;;6.40;3.85;;;7.70;68.60;;;;;;5071908;28;20029;-74
2023/12/30 01:45:01;;;;;;;7.63;1.95;;;7.70;68.60;;;;;;5075162;28;20039;-73
2023/12/30 01:47:27;;;;;;;3.35;2.13;;;7.80;68.50;;;;;;5074909;28;20044;-73
2023/12/30 01:49:53;;;;;;;;;;;7.70;67.90;;;;;;5075625;28;20055;-73
2023/12/30 01:52:19;;;;;;;2.35;1.25;;;7.80;68.50;;;;;;5071075;28;20419;-72
2023/12/30 01:54:45;;;;;;;3.22;2.05;;;7.80;67.80;;;;;;5074972;28;20036;-73
2023/12/30 01:57:12;;;;;;;2.75;1.70;;;7.80;68.70;;;;;;5073273;28;20082;-72
2023/12/30 01:59:38;;;;;;;3.35;2.78;;;7.80;68.50;;;;;;5073512;28;20047;-72
2023/12/30 02:02:04;;;;;;;2.80;1.55;;;7.80;68.80;;;;;;5053568;28;20048;-72
2023/12/30 02:04:31;;;;;;;5.68;2.22;;;7.70;69.00;;;;;;5056698;28;20135;-73
2023/12/30 02:06:57;;;;;;;2.67;1.60;;;7.80;69.20;;;;;;5056443;28;20058;-73
2023/12/30 02:09:24;;;;;;;3.50;2.47;;;7.70;69.10;;;;;;5072371;28;20037;-73
2023/12/30 02:11:50;;;;;;;;;;;7.70;69.00;;;;;;5055054;28;20048;-73
2023/12/30 02:14:35;;;;;;;5.15;4.07;;;7.70;69.20;;;;;;5074223;28;20274;-72
2023/12/30 02:17:01;;;;;;;4.30;2.78;;;7.70;69.00;;;;;;5072907;28;20385;-73
2023/12/30 02:19:27;;;;;;;5.80;2.10;;;7.70;68.90;;;;;;5072095;28;20470;-72
2023/12/30 02:21:53;;;;;;;3.55;1.50;;;7.70;68.90;;;;;;5055634;28;20493;-72
2023/12/30 02:24:20;;;;;;;4.93;1.95;;;7.80;68.80;;;;;;5073399;28;20047;-73
2023/12/30 02:26:47;;;;;;;5.22;2.13;;;7.80;68.10;;;;;;5072912;28;20040;-73
2023/12/30 02:29:13;;;;;;;7.75;2.50;;;7.80;68.20;;;;;;5071641;28;20040;-73
2023/12/30 02:31:45;;;;;;;;;;;7.80;68.90;;;;;;5055959;28;20056;-73
2023/12/30 02:34:31;;;;;;;6.97;2.72;;;7.80;68.50;;;;;;5073002;28;20089;-73
2023/12/30 02:36:57;;;;;;;2.38;1.73;;;7.80;68.70;;;;;;5073758;28;20402;-73
2023/12/30 02:39:23;;;;;;;2.47;1.80;;;7.80;69.10;;;;;;5069861;28;20486;-73
2023/12/30 02:41:49;;;;;;;5.22;2.00;;;7.80;69.40;;;;;;5071856;28;20489;-72
2023/12/30 02:44:18;;;;;;;2.33;1.77;;;7.80;69.50;;;;;;5072597;28;20036;-73
2023/12/30 02:46:44;;;;;;;4.88;1.98;;;7.80;68.70;;;;;;5071416;28;20060;-74
2023/12/30 02:49:10;;;;;;;;;;;7.80;69.30;;;;;;5074037;28;20043;-72
2023/12/30 02:51:36;;;;;;;4.10;2.28;;;7.80;69.20;;;;;;5072789;28;20010;-73
2023/12/30 02:54:03;;;;;;;2.92;1.58;;;7.80;69.30;;;;;;5072420;28;20029;-73
2023/12/30 02:56:29;;;;;;;2.67;1.38;;;7.80;69.30;;;;;;5070920;28;20086;-73
2023/12/30 02:59:06;;;;;;;1.33;0.70;;;7.80;69.30;;;;;;5072107;28;20051;-72
2023/12/30 03:01:32;;;;;;;2.50;1.70;;;7.80;69.40;;;;;;5072883;28;20048;-72
2023/12/30 03:04:00;;;;;;;3.10;2.05;;;7.80;69.40;;;;;;5072266;28;20040;-73
2023/12/30 03:06:27;;;;;;;2.00;0.98;;;7.80;69.50;;;;;;5070834;28;20055;-73
2023/12/30 03:08:54;;;;;;;1.67;0.85;;;7.80;69.70;;;;;;5071950;28;20082;-72
2023/12/30 03:11:21;;;;;;;2.92;2.05;;;7.70;70.10;;;;;;5071386;28;20039;-72
2023/12/30 03:13:47;;;;;;;2.45;1.02;;;7.60;69.90;;;;;;5072040;28;20036;-72
2023/12/30 03:16:16;;;;;;;;;;;7.60;70.10;;;;;;5070681;28;20043;-73
2023/12/30 03:18:44;;;;;;;3.58;1.25;;;7.50;70.40;;;;;;5072817;28;20297;-72
2023/12/30 03:21:13;;;;;;;3.00;1.70;;;7.40;70.30;;;;;;5071126;28;20563;-72
2023/12/30 03:23:39;;;;;;;4.25;2.65;;;7.30;70.30;;;;;;5071952;28;20051;-73
2023/12/30 03:26:08;;;;;;;4.57;1.88;;;7.30;70.60;;;;;;5070387;28;20386;-73
2023/12/30 03:28:34;;;;;;;3.97;2.70;;;7.20;70.60;;;;;;5071829;28;20068;-73
2023/12/30 03:31:00;;;;;;;6.22;2.50;;;7.10;70.80;;;;;;5072000;28;20039;-73
2023/12/30 03:33:26;;;;;;;;;;;7.00;71.10;;;;;;5070407;28;20506;-72
2023/12/30 03:35:53;;;;;;;7.80;2.47;;;7.00;70.40;;;;;;5071854;28;19916;-73
2023/12/30 03:38:19;;;;;;;2.92;1.83;;;6.90;71.10;;;;;;5072671;28;20044;-73
2023/12/30 03:40:46;;;;;;;7.57;3.17;;;6.80;71.30;;;;;;5070902;28;20032;-73
2023/12/30 03:43:13;;;;;;;4.85;2.55;;;6.70;71.50;;;;;;5070278;28;20047;-73
2023/12/30 03:45:39;;;;;;;1.80;1.00;;;6.70;71.40;;;;;;5071240;28;20455;-73
2023/12/30 03:48:06;;;;;;;2.85;1.88;;;6.60;71.50;;;;;;5072616;28;20031;-73
2023/12/30 03:50:32;;;;;;;5.28;3.80;;;6.60;71.80;;;;;;5070632;28;20498;-72
2023/12/30 03:52:58;;;;;;;8.90;4.50;;;6.60;72.10;;;;;;5052440;28;20029;-73
2023/12/30 03:55:24;;;;;;;9.18;3.88;;;6.50;72.30;;;;;;5071117;28;20037;-73
2023/12/30 03:57:52;;;;;;;4.97;3.20;;;6.50;72.30;;;;;;5071284;28;20037;-73
2023/12/30 04:00:18;;;;;;;6.72;2.60;;;6.50;72.10;;;;;;5071860;28;20037;-72
2023/12/30 04:02:47;;;;;;;8.60;2.72;;;6.40;71.90;;;;;;5069839;28;20385;-73
2023/12/30 04:05:13;;;;;;;5.75;2.10;;;6.40;71.80;;;;;;5072322;28;20084;-73
2023/12/30 04:07:39;;;;;;;;;;;6.40;71.60;;;;;;5071804;28;20060;-72
2023/12/30 04:10:07;;;;;;;2.97;2.25;;;6.40;70.70;;;;;;5070640;28;19920;-72
2023/12/30 04:12:35;;;;;;;3.92;2.58;;;6.30;70.90;;;;;;5069811;28;20055;-73
2023/12/30 04:15:01;;;;;;;3.55;1.48;;;6.20;70.80;;;;;;5072214;28;20428;-73
2023/12/30 04:17:27;;;;;;;2.20;1.02;;;6.10;70.80;;;;;;5070887;28;20485;-73
2023/12/30 04:19:54;;;;;;;1.83;1.30;;;6.00;71.40;;;;;;5070595;28;20040;-72
2023/12/30 04:22:20;;;;;;;2.63;1.17;;;6.00;71.50;;;;;;5069870;28;20044;-73
2023/12/30 04:24:46;;;;;;;3.90;2.58;;;6.00;71.50;;;;;;5071111;28;20068;-73
2023/12/30 04:27:12;;;;;;;3.72;1.70;;;5.90;71.20;;;;;;5070818;28;20044;-72
2023/12/30 04:29:38;;;;;;;3.30;1.80;;;5.90;71.20;;;;;;5051777;28;20032;-73
2023/12/30 04:32:04;;;;;;;;;;;5.80;71.50;;;;;;5071896;28;20029;-72
2023/12/30 04:34:30;;;;;;;3.30;2.22;;;5.70;70.90;;;;;;5070970;28;20392;-72
2023/12/30 04:36:56;;;;;;;4.05;2.15;;;5.70;71.60;;;;;;5070653;28;20040;-72
2023/12/30 04:39:22;;;;;;;6.05;3.90;;;5.70;71.70;;;;;;5069599;28;20040;-73
2023/12/30 04:41:48;;;;;;;2.38;1.58;;;5.70;71.70;;;;;;5071308;28;20071;-72
2023/12/30 04:44:15;;;;;;;4.72;2.22;;;5.60;71.70;;;;;;5071945;28;20044;-73
2023/12/30 04:46:41;;;;;;;3.22;2.65;;;5.50;71.70;;;;;;5055542;28;20035;-72
2023/12/30 04:49:07;;;;;;;3.40;1.90;;;5.50;71.70;;;;;;5071730;28;20036;-72
2023/12/30 04:51:33;;;;;;;4.18;2.20;;;5.50;71.50;;;;;;5075330;28;20443;-73
2023/12/30 04:53:59;;;;;;;4.00;1.55;;;5.40;71.40;;;;;;5074762;28;20044;-73
2023/12/30 04:56:25;;;;;;;3.55;0.77;;;5.40;71.60;;;;;;5075829;28;20037;-73
2023/12/30 04:58:51;;;;;;;2.30;1.02;;;5.40;71.60;;;;;;5071857;28;20051;-72
2023/12/30 05:01:17;;;;;;;8.10;2.05;;;5.30;72.10;;;;;;5074931;28;20036;-73
2023/12/30 05:03:43;;;;;;;7.47;2.47;;;5.20;72.10;;;;;;5074315;28;20116;-73
2023/12/30 05:06:25;;;;;;;3.85;2.45;;;5.10;71.90;;;;;;5057409;28;20052;-72
2023/12/30 05:08:53;;;;;;;3.05;2.05;;;5.10;73.40;;;;;;5072155;28;20054;-73
2023/12/30 05:11:20;;;;;;;5.25;2.95;;;5.10;73.90;;;;;;5073661;28;20032;-73
2023/12/30 05:13:46;;;;;;;2.15;1.42;;;5.00;73.80;;;;;;5075422;28;20041;-72
2023/12/30 05:16:13;;;;;;;3.50;1.13;;;5.00;73.90;;;;;;5070564;28;20502;-73
2023/12/30 05:18:42;;;;;;;3.10;1.70;;;5.00;73.90;;;;;;5075429;28;20119;-72
2023/12/30 05:21:27;;;;;;;2.42;1.52;;;5.00;73.90;;;;;;5073570;28;20063;-73
2023/12/30 05:23:52;;;;;;;4.35;1.95;;;5.00;73.90;;;;;;5075462;28;20082;-73
2023/12/30 05:26:18;;;;;;;1.45;0.95;;;5.00;73.70;;;;;;5071512;28;20496;-73
2023/12/30 05:28:44;;;;;;;3.60;1.63;;;4.90;73.50;;;;;;5075057;28;20050;-72
2023/12/30 05:31:10;;;;;;;2.47;1.40;;;5.00;73.50;;;;;;5074579;28;20086;-73
2023/12/30 05:33:37;;;;;;;2.38;1.10;;;4.90;73.30;;;;;;5075301;28;20040;-73
2023/12/30 05:36:03;;;;;;;2.17;1.45;;;4.90;73.30;;;;;;5071320;28;20062;-73
2023/12/30 05:38:29;;;;;;;4.05;1.95;;;4.80;72.40;;;;;;5074953;28;20045;-72
2023/12/30 05:40:55;;;;;;;;;;;4.80;72.90;;;;;;5075235;28;20485;-72
2023/12/30 05:43:21;;;;;;;2.80;0.93;;;4.80;72.80;;;;;;5075106;28;19928;-73
2023/12/30 05:45:47;;;;;;;3.58;1.67;;;4.70;72.70;;;;;;5071097;28;20028;-72
2023/12/30 05:48:13;;;;;;;3.25;1.27;;;4.70;72.70;;;;;;5073662;28;20041;-73
2023/12/30 05:50:39;;;;;;;6.68;1.42;;;4.60;72.70;;;;;;5074028;28;20220;-72
2023/12/30 05:53:05;;;;;;;9.38;2.00;;;4.60;72.70;;;;;;5073461;28;20028;-72
2023/12/30 05:55:31;;;;;;;2.30;0.88;;;4.60;72.70;;;;;;5071090;28;20386;-73
2023/12/30 05:57:57;;;;;;;5.00;2.03;;;4.60;72.60;;;;;;5073391;28;20039;-73
2023/12/30 06:00:24;;;;;;;2.65;1.40;;;4.60;72.50;;;;;;5073957;28;20060;-73
2023/12/30 06:02:51;;;;;;;2.25;0.93;;;4.50;72.60;;;;;;5072139;28;20032;-73
2023/12/30 06:05:18;;;;;;;2.33;1.17;;;4.50;72.60;;;;;;5073263;28;20047;-73
2023/12/30 06:07:44;;;;;;;2.83;0.73;;;4.50;72.80;;;;;;5074609;28;20060;-73
2023/12/30 06:10:10;;;;;;;4.78;1.75;;;4.40;72.70;;;;;;5073548;28;20095;-72
2023/12/30 06:12:36;;;;;;;1.35;0.93;;;4.40;72.80;;;;;;5069318;28;20029;-73
2023/12/30 06:15:04;;;;;;;2.00;1.13;;;4.40;72.80;;;;;;5074447;28;20432;-72
2023/12/30 06:17:30;;;;;;;2.70;0.95;;;4.40;72.50;;;;;;5073083;28;20047;-73
2023/12/30 06:19:56;;;;;;;0.93;0.52;;;4.30;72.50;;;;;;5074498;28;20032;-73
2023/12/30 06:22:22;;;;;;;0.88;0.55;;;4.30;72.60;;;;;;5070837;28;20033;-73
2023/12/30 06:24:48;;;;;;;1.05;0.77;;;4.30;72.80;;;;;;5074394;28;20066;-72
2023/12/30 06:27:14;;;;;;;0.80;0.63;;;4.20;72.70;;;;;;5072867;28;20040;-73
2023/12/30 06:29:40;;;;;;;1.63;0.95;;;4.20;72.60;;;;;;5072734;28;20455;-72
2023/12/30 06:32:07;;;;;;;1.45;0.57;;;4.20;72.50;;;;;;5071127;28;20490;-73
2023/12/30 06:34:34;;;;;;;2.75;1.13;;;4.20;72.50;;;;;;5074319;28;20032;-72
2023/12/30 06:37:00;;;;;;;1.38;0.93;;;4.20;72.60;;;;;;5073716;28;20507;-73
2023/12/30 06:39:26;;;;;;;1.70;1.33;;;4.20;73.10;;;;;;5074233;28;20106;-73
2023/12/30 06:41:52;;;;;;;2.17;0.98;;;4.10;73.80;;;;;;5069330;28;20059;-72
2023/12/30 06:44:18;;;;;;;1.30;0.88;;;4.10;74.40;;;;;;5072292;28;20496;-72
2023/12/30 06:46:44;;;;;;;1.40;0.73;;;4.10;74.50;;;;;;5072254;28;20051;-73
2023/12/30 06:49:10;;;;;;;6.28;2.67;;;4.10;74.00;;;;;;5073933;28;20044;-72
2023/12/30 06:51:36;;;;;;;3.95;2.35;;;4.10;73.90;;;;;;5068796;28;20142;-72
2023/12/30 06:54:02;;;;;;;2.33;1.48;;;4.10;73.90;;;;;;5073414;28;20086;-74
2023/12/30 06:56:28;;;;;;;3.88;2.20;;;4.10;73.80;;;;;;5072028;28;20035;-73
2023/12/30 06:58:54;;;;;;;3.15;1.88;;;4.10;73.60;;;;;;5068677;28;20432;-72
2023/12/30 07:01:21;;;;;;;4.60;1.55;;;4.10;73.50;;;;;;5071272;28;20040;-73
2023/12/30 07:03:47;;;;;;;3.90;1.55;;;4.10;73.40;;;;;;5055447;28;20485;-73
2023/12/30 07:06:13;;;;;;;2.53;1.63;;;4.10;73.50;;;;;;5055251;28;20083;-72
2023/12/30 07:08:39;;;;;;;3.88;2.25;;;4.10;73.40;;;;;;5070648;28;20094;-72
2023/12/30 07:11:05;;;;;;;3.22;1.75;;;4.10;73.20;;;;;;5072648;28;20490;-73
2023/12/30 07:13:31;;;;;;;6.57;1.73;;;4.10;73.10;;;;;;5055112;28;20481;-73
2023/12/30 07:15:57;;;;;;;3.67;2.33;;;4.10;72.90;;;;;;5071800;28;20036;-72
2023/12/30 07:18:23;;;;;;;2.65;1.15;;;4.10;73.00;;;;;;5069582;28;20127;-73
2023/12/30 07:20:49;;;;;;;2.13;1.38;;;4.20;72.80;;;;;;5067780;28;20047;-73
2023/12/30 07:23:15;;;;;;;0.95;0.70;;;4.10;72.70;;;;;;5073160;28;20069;-72
2023/12/30 07:25:41;;;;;;;3.58;1.52;;;4.20;72.80;;;;;;5072614;28;20028;-72
2023/12/30 07:28:07;;;;;;;10.40;2.45;;;4.20;72.90;;;;;;5070269;28;20047;-72
2023/12/30 07:30:34;;;;;;;2.33;1.48;;;4.20;72.90;;;;;;5071974;28;20052;-73
2023/12/30 07:33:02;;;;;;;3.03;1.48;;;4.30;73.00;;;;;;5072785;28;20079;-72
2023/12/30 07:35:28;;;;;;;3.55;1.90;;;4.30;72.80;;;;;;5054897;28;20271;-73
2023/12/30 07:37:54;;;;;;;6.68;2.17;;;4.30;73.00;;;;;;5070160;28;20036;-73
2023/12/30 07:40:21;;;;;;;2.75;1.70;;;4.30;73.10;;;;;;5065247;28;20029;-73
2023/12/30 07:42:47;;;;;;;;;;;4.40;73.20;;;;;;5075042;28;20031;-72
2023/12/30 07:45:13;;;;;;;2.58;1.02;;;4.40;73.10;;;;;;5092823;28;19922;-72
2023/12/30 07:47:39;;;;;;;3.40;1.38;;;4.50;73.10;;;;;;5071263;28;20043;-72
2023/12/30 07:50:06;;;;;;;2.33;1.35;;;4.50;73.10;;;;;;5071556;28;20048;-72
2023/12/30 07:52:32;;;;;;;2.10;1.05;;;4.50;73.10;;;;;;5071133;28;20030;-73
2023/12/30 07:54:58;;;;;;;0.73;0.50;;;4.60;73.20;;;;;;5068884;28;20048;-73
2023/12/30 07:57:24;;;;;;;2.75;1.85;;;4.60;73.10;;;;;;5072274;28;20040;-73
2023/12/30 07:59:50;;;;;;;2.72;1.63;;;4.70;73.00;;;;;;5088279;28;20032;-72
2023/12/30 08:02:16;;;;;;;2.20;1.70;;;4.80;72.80;;;;;;5091942;28;20043;-73
2023/12/30 08:07:28;;;;;;;5.95;3.22;;;4.80;72.40;;;;;;5071188;28;20048;-72
2023/12/30 08:09:54;;;;;;;6.80;4.93;;;4.90;72.30;;;;;;5072227;28;20032;-73
2023/12/30 08:12:20;;;;;;;10.30;4.97;;;4.90;72.10;;;;;;5070396;28;20044;-72
2023/12/30 08:14:46;;;;;;;4.57;2.50;;;4.90;71.80;;;;;;5069680;28;20032;-73
2023/12/30 08:17:12;;;;;;;3.22;2.35;;;5.00;71.80;;;;;;5055087;28;20025;-72
2023/12/30 08:19:38;;;;;;;4.45;3.00;;;5.00;71.90;;;;;;5076872;28;20102;-72
2023/12/30 08:22:04;;;;;;;9.00;4.15;;;5.00;71.90;;;;;;5034446;28;20476;-73
2023/12/30 08:24:30;;;;;;;5.65;3.58;;;5.10;71.90;;;;;;5047578;28;20040;-73
2023/12/30 08:26:56;;;;;;;7.57;2.67;;;5.10;71.70;;;;;;5070837;28;20028;-73
2023/12/30 08:29:22;;;;;;;4.75;3.53;;;5.20;71.50;;;;;;5072345;28;20047;-73
2023/12/30 08:31:49;;;;;;;4.35;3.10;;;5.30;71.60;;;;;;5071363;28;20032;-73
2023/12/30 08:34:16;;;;;;;6.80;4.07;;;5.40;71.50;;;;;;5069285;28;20033;-72
2023/12/30 08:36:42;;;;;;;7.25;3.72;;;5.50;71.30;;;;;;5071974;28;20028;-73
2023/12/30 08:39:09;;;;;;;8.05;5.45;;;5.70;71.50;;;;;;5072132;28;20509;-73
2023/12/30 08:41:35;;;;;;;7.22;4.88;;;5.80;71.10;;;;;;5067825;28;20052;-73
2023/12/30 08:44:02;;;;;;;8.65;2.58;;;6.00;71.00;;;;;;5070557;28;20402;-72
2023/12/30 08:46:28;;;;;;;4.95;3.53;;;6.10;70.90;;;;;;5071926;28;20047;-74
2023/12/30 08:48:54;;;;;;;6.55;3.55;;;6.30;70.20;;;;;;5053915;28;20123;-73
2023/12/30 08:51:22;;;;;;;10.48;5.40;;;6.40;70.50;;;;;;5069294;28;20041;-73
2023/12/30 08:53:48;;;;;;;5.13;2.95;;;6.60;70.40;;;;;;5071914;28;20087;-73
2023/12/30 08:56:14;;;;;;;11.40;5.43;;;6.80;70.10;;;;;;5071860;28;20028;-72
2023/12/30 08:58:40;;;;;;;7.03;3.83;;;7.00;69.70;;;;;;5053633;28;20143;-72
2023/12/30 09:01:06;;;;;;;8.38;4.50;;;7.30;69.50;;;;;;5068815;28;20259;-73
2023/12/30 09:03:32;;;;;;;9.40;6.32;;;7.50;68.90;;;;;;5070652;28;20041;-73
2023/12/30 09:05:58;;;;;;;8.05;5.22;;;7.90;68.10;;;;;;5071485;28;20067;-72
2023/12/30 09:08:25;;;;;;;12.77;8.05;;;9.00;65.70;;;;;;5070694;28;20029;-73
2023/12/30 09:10:51;;;;;;;12.55;6.22;;;10.40;61.00;;;;;;5068133;28;20388;-73
2023/12/30 09:13:17;;;;;;;17.92;4.95;;;10.80;59.50;;;;;;5071705;28;20041;-73
2023/12/30 09:15:43;;;;;;;6.78;3.22;;;11.10;59.40;;;;;;5070127;28;20082;-72
2023/12/30 09:18:09;;;;;;;5.72;3.33;;;11.60;58.80;;;;;;5071487;28;20420;-73
2023/12/30 09:20:35;;;;;;;5.07;3.35;;;11.80;57.40;;;;;;5068329;28;20036;-73
2023/12/30 09:23:01;;;;;;;5.28;3.08;;;12.10;58.20;;;;;;5071639;28;20074;-73
2023/12/30 09:25:28;;;;;;;4.43;3.85;;;12.30;56.90;;;;;;5071385;28;20405;-73
2023/12/30 09:27:54;;;;;;;6.07;2.90;;;12.50;56.40;;;;;;5068963;28;20032;-74
2023/12/30 09:30:20;;;;;;;3.95;2.65;;;12.40;56.70;;;;;;5070797;28;20032;-72
2023/12/30 09:32:46;;;;;;;5.40;2.75;;;12.00;56.30;;;;;;5067232;28;20056;-72
2023/12/30 09:35:12;;;;;;;3.80;1.92;;;11.90;57.20;;;;;;5063443;28;20056;-73
2023/12/30 09:37:39;;;;;;;3.72;2.53;;;12.20;56.50;;;;;;5071211;28;20029;-72
2023/12/30 09:40:06;;;;;;;17.10;5.50;;;12.40;54.80;;;;;;5074621;28;20035;-73
2023/12/30 09:42:32;;;;;;;8.68;2.72;;;12.50;55.10;;;;;;5093455;28;20396;-73
2023/12/30 09:45:00;;;;;;;1.65;0.85;;;12.70;54.80;;;;;;5095068;28;20047;-71
2023/12/30 09:47:28;;;;;;;3.30;1.13;;;12.90;54.30;;;;;;5080464;28;20040;-70
2023/12/30 09:49:55;;;;;;;1.75;0.80;;;13.40;52.70;;;;;;5073688;28;20106;-71
2023/12/30 09:52:21;;;;;;;4.88;2.95;;;13.60;51.70;;;;;;5072763;28;20083;-70
2023/12/30 09:54:47;;;;;;;3.28;1.92;;;13.90;51.20;;;;;;5075108;28;20037;-70
2023/12/30 09:57:14;;;;;;;3.25;1.95;;;13.80;51.30;;;;;;5072026;28;20045;-70
2023/12/30 09:59:43;;;;;;;1.63;0.73;;;13.80;51.40;;;;;;5073689;28;20161;-71
2023/12/30 10:02:10;;;;;;;2.70;1.90;;;13.90;51.40;;;;;;5072593;28;20116;-71
2023/12/30 10:04:37;;;;;;;2.22;1.27;;;14.00;50.70;;;;;;5073657;28;20074;-71
2023/12/30 10:07:03;;;;;;;4.03;3.00;;;13.70;50.30;;;;;;5071875;28;20196;-70
2023/12/30 10:09:50;;;;;;;2.50;1.38;;;13.70;51.60;;;;;;5073434;28;20082;-71
2023/12/30 10:12:16;;;;;;;2.95;1.83;;;13.80;51.40;;;;;;5055965;28;20035;-71
2023/12/30 10:14:42;;;;;;;2.88;1.88;;;13.70;51.20;;;;;;5071175;28;20107;-71
2023/12/30 10:17:10;;;;;;;4.95;1.83;;;13.80;51.70;;;;;;5072891;28;20108;-71
2023/12/30 10:19:36;;;;;;;1.38;1.20;;;13.70;51.30;;;;;;5073158;28;20097;-70
2023/12/30 10:22:03;;;;;;;1.65;1.10;;;14.00;51.20;;;;;;5073665;28;20047;-71
2023/12/30 10:24:30;;;;;;;4.40;1.85;;;14.40;50.10;;;;;;5073214;28;20036;-71
2023/12/30 10:27:03;;;;;;;2.00;1.00;;;14.70;49.20;;;;;;5072765;28;20044;-70
2023/12/30 10:29:29;;;;;;;2.60;1.75;;;15.00;49.40;;;;;;5072832;28;20076;-71
2023/12/30 10:32:20;;;;;;;2.17;1.45;;;15.30;48.70;;;;;;5073504;28;20032;-70
2023/12/30 10:34:46;;;;;;;0.82;0.60;;;15.30;48.60;;;;;;5071215;28;20055;-71
2023/12/30 10:37:12;;;;;;;2.30;1.27;;;15.60;47.50;;;;;;5073744;28;20033;-71
2023/12/30 10:39:41;;;;;;;2.03;0.93;;;15.60;46.60;;;;;;5071628;28;20048;-70
2023/12/30 10:42:07;;;;;;;3.92;1.05;;;15.60;46.80;;;;;;5069066;28;20037;-70
2023/12/30 10:44:34;;;;;;;3.42;2.50;;;15.80;46.80;;;;;;5072466;28;20128;-70
2023/12/30 10:47:03;;;;;;;1.83;1.63;;;15.90;46.40;;;;;;5072411;28;20037;-71
2023/12/30 10:49:29;;;;;;;2.03;1.08;;;15.90;46.10;;;;;;5073596;28;20135;-71
2023/12/30 10:52:00;;;;;;;1.33;0.85;;;15.90;46.10;;;;;;5069376;28;20059;-70
2023/12/30 10:54:34;;;;;;;1.00;0.85;;;15.80;46.00;;;;;;5072306;28;20045;-70
2023/12/30 10:57:19;;;;;;;4.80;0.95;;;16.20;45.40;;;;;;5072386;28;20028;-70
2023/12/30 10:59:50;;;;;;;1.90;0.95;;;17.10;43.50;;;;;;5073238;28;20047;-71
2023/12/30 11:02:16;;;;;;;1.50;1.40;;;17.00;43.60;;;;;;5068693;28;20387;-70
2023/12/30 11:04:43;;;;;;;2.55;0.55;;;17.00;44.00;;;;;;5072326;28;20070;-71
2023/12/30 11:07:11;;;;;;;2.75;1.67;;;17.20;43.30;;;;;;5055229;28;20040;-71
2023/12/30 11:09:37;;;;;;;2.05;1.35;;;17.60;42.80;;;;;;5072123;28;20073;-71
2023/12/30 11:12:05;;;;;;;3.45;1.65;;;17.70;42.40;;;;;;5069757;28;20075;-71
2023/12/30 11:14:36;;;;;;;2.10;1.05;;;17.60;42.10;;;;;;5072053;28;20377;-70
2023/12/30 11:17:02;;;;;;;6.78;2.30;;;17.20;43.10;;;;;;5055353;28;20033;-71
2023/12/30 11:19:30;;;;;;;;;;;16.80;44.30;;;;;;5068363;28;20148;-70
2023/12/30 11:21:59;;;;;;;2.95;1.33;;;16.90;45.00;;;;;;5071158;28;19944;-70
2023/12/30 11:24:26;;;;;;;1.27;0.77;;;17.00;44.20;;;;;;5071915;28;20039;-70
2023/12/30 11:26:54;;;;;;;2.15;1.27;;;17.40;43.70;;;;;;5072859;28;20478;-71
2023/12/30 11:29:27;;;;;;;1.27;0.73;;;17.20;43.80;;;;;;5068672;28;20048;-70
2023/12/30 11:31:56;;;;;;;4.00;1.83;;;17.30;43.90;;;;;;5072766;28;20037;-71
2023/12/30 11:34:24;;;;;;;5.00;2.60;;;18.60;41.80;;;;;;5071549;28;20037;-71
2023/12/30 11:36:52;;;;;;;7.10;3.38;;;19.40;39.80;;;;;;5071488;28;20112;-71
2023/12/30 11:39:38;;;;;;;2.30;0.88;;;19.20;39.70;;;;;;5053538;28;20392;-72
2023/12/30 11:42:06;;;;;;;1.23;0.80;;;18.90;40.50;;;;;;5070762;28;20436;-71
2023/12/30 11:44:32;;;;;;;2.47;1.75;;;18.40;40.90;;;;;;5054798;28;20049;-71
2023/12/30 11:46:59;;;;;;;3.13;1.27;;;18.30;42.40;;;;;;5072677;28;20082;-70
2023/12/30 11:49:26;;;;;;;2.40;1.42;;;20.20;38.60;;;;;;5068982;28;20102;-71
2023/12/30 11:52:02;;;;;;;2.00;0.57;;;21.60;35.20;;;;;;5070634;28;20111;-71
2023/12/30 11:54:28;;;;;;;2.65;0.75;;;20.60;35.20;;;;;;5054535;28;20055;-71
2023/12/30 11:56:55;;;;;;;0.30;0.30;;;19.90;37.40;;;;;;5067831;28;20045;-71
2023/12/30 11:59:21;;;;;;;0.38;0.30;;;19.50;37.40;;;;;;5072522;28;20044;-71
2023/12/30 12:01:47;;;;;;;0.47;0.47;;;21.20;36.00;;;;;;5070544;28;20048;-71
2023/12/30 12:04:14;;;;;;;0.40;0.20;;;22.40;33.50;;;;;;5072700;28;20047;-71
2023/12/30 12:06:40;;;;;;;0.10;0.10;;;23.50;29.80;;;;;;5068766;28;20047;-70
2023/12/30 12:09:07;;;;;;;0.82;0.45;;;22.50;31.20;;;;;;5054384;28;20048;-71
2023/12/30 12:11:33;;;;;;;0.65;0.50;;;21.40;33.10;;;;;;5070424;28;20489;-71
2023/12/30 12:13:59;;;;;;;;;;;20.50;34.60;;;;;;5072887;28;20086;-71
2023/12/30 12:16:27;;;;;;;1.85;0.88;;;20.10;35.40;;;;;;5069440;28;20018;-71
2023/12/30 12:18:54;;;;;;;0.75;0.73;;;19.80;36.30;;;;;;5072217;28;20089;-70
2023/12/30 12:21:20;;;;;;;0.30;0.30;;;19.10;37.90;;;;;;5070143;28;20032;-71
2023/12/30 12:23:47;;;;;;;0.60;0.40;;;18.70;38.50;;;;;;5071046;28;20036;-71
2023/12/30 12:26:13;;;;;;;1.08;0.70;;;18.80;39.50;;;;;;5067566;28;20029;-71
2023/12/30 12:28:39;;;;;;;0.75;0.40;;;18.70;39.40;;;;;;5072292;28;20044;-71
2023/12/30 12:31:06;;;;;;;0.50;0.50;;;18.40;39.60;;;;;;5071540;28;20029;-71
2023/12/30 12:33:34;;;;;;;0.95;0.30;;;18.20;40.20;;;;;;5070876;28;20394;-70
2023/12/30 12:36:01;;;;;;;1.10;0.60;;;18.10;40.80;;;;;;5069125;28;20041;-71
2023/12/30 12:38:27;;;;;;;2.00;1.02;;;18.10;40.30;;;;;;5070777;28;20068;-71
2023/12/30 12:40:54;;;;;;;1.23;0.90;;;18.20;41.10;;;;;;5071310;28;20033;-71
2023/12/30 12:43:20;;;;;;;;;;;18.20;39.60;;;;;;5068726;28;20501;-71
2023/12/30 12:45:46;;;;;;;1.08;1.02;;;18.30;39.70;;;;;;5070415;28;20009;-71
2023/12/30 12:48:13;;;;;;;2.85;0.52;;;18.20;39.70;;;;;;5070772;28;20389;-71
2023/12/30 12:50:39;;;;;;;2.70;0.95;;;18.30;39.70;;;;;;5070102;28;20037;-71
2023/12/30 12:53:05;;;;;;;2.47;1.20;;;18.60;39.30;;;;;;5069605;28;20033;-71
2023/12/30 12:55:31;;;;;;;;;;;19.10;38.60;;;;;;5072197;28;20036;-71
2023/12/30 12:57:57;;;;;;;1.20;0.73;;;19.80;37.60;;;;;;5071818;28;19944;-71
2023/12/30 13:00:25;;;;;;;;;;;20.70;35.70;;;;;;5071760;28;20052;-71